sensor_id;sensor_type;location;lat;lon;timestamp;P1;P2;P0
68198;PMS7003;55021;51.554;17.044;2023-07-20T00:24:17;13.75;13.50;7.00
68198;PMS7003;55021;51.554;17.044;2023-07-20T00:54:56;15.00;14.00;8.00
68198;PMS7003;55021;51.554;17.044;2023-07-20T01:10:01;11.00;11.00;6.25
68198;PMS7003;55021;51.554;17.044;2023-07-20T01:40:23;15.25;12.50;7.25
68198;PMS7003;55021;51.554;17.044;2023-07-20T01:55:27;17.00;13.00;7.00
68198;PMS7003;55021;51.554;17.044;2023-07-20T02:10:29;13.75;12.75;6.25
68198;PMS7003;55021;51.554;17.044;2023-07-20T02:25:40;13.00;13.00;7.75
68198;PMS7003;55021;51.554;17.044;2023-07-20T02:56:09;24.75;19.50;12.00
68198;PMS7003;55021;51.554;17.044;2023-07-20T03:11:11;23.75;22.25;14.25
68198;PMS7003;55021;51.554;17.044;2023-07-20T03:41:16;22.50;21.75;14.75
68198;PMS7003;55021;51.554;17.044;2023-07-20T03:56:41;23.00;20.50;14.25
68198;PMS7003;55021;51.554;17.044;2023-07-20T04:42:32;26.75;23.75;15.25
68198;PMS7003;55021;51.554;17.044;2023-07-20T04:57:35;24.75;22.75;15.00
68198;PMS7003;55021;51.554;17.044;2023-07-20T05:12:37;25.00;23.75;16.00
68198;PMS7003;55021;51.554;17.044;2023-07-20T05:27:40;24.00;23.50;16.00
68198;PMS7003;55021;51.554;17.044;2023-07-20T05:42:45;21.25;21.25;13.25
68198;PMS7003;55021;51.554;17.044;2023-07-20T05:57:48;16.00;15.00;10.00
68198;PMS7003;55021;51.554;17.044;2023-07-20T06:12:50;17.00;14.25;9.00
68198;PMS7003;55021;51.554;17.044;2023-07-20T06:28:32;14.75;12.75;8.50
68198;PMS7003;55021;51.554;17.044;2023-07-20T06:43:34;16.25;15.00;9.50
68198;PMS7003;55021;51.554;17.044;2023-07-20T06:58:38;17.75;17.00;11.00
68198;PMS7003;55021;51.554;17.044;2023-07-20T07:13:40;16.75;15.50;10.00
68198;PMS7003;55021;51.554;17.044;2023-07-20T07:28:47;20.00;17.00;11.00
68198;PMS7003;55021;51.554;17.044;2023-07-20T07:43:55;13.25;12.25;7.00
68198;PMS7003;55021;51.554;17.044;2023-07-20T07:59:02;13.50;12.50;8.00
68198;PMS7003;55021;51.554;17.044;2023-07-20T08:14:05;13.25;13.00;8.00
68198;PMS7003;55021;51.554;17.044;2023-07-20T08:29:09;12.50;12.00;7.00
68198;PMS7003;55021;51.554;17.044;2023-07-20T08:44:11;13.00;12.50;8.00
68198;PMS7003;55021;51.554;17.044;2023-07-20T09:14:23;8.25;8.25;5.00
68198;PMS7003;55021;51.554;17.044;2023-07-20T09:29:25;10.25;10.00;5.50
68198;PMS7003;55021;51.554;17.044;2023-07-20T09:44:28;16.50;14.50;8.50
68198;PMS7003;55021;51.554;17.044;2023-07-20T09:59:31;16.25;14.75;9.75
68198;PMS7003;55021;51.554;17.044;2023-07-20T10:14:34;12.75;12.75;8.25
68198;PMS7003;55021;51.554;17.044;2023-07-20T10:29:43;10.00;10.00;6.00
68198;PMS7003;55021;51.554;17.044;2023-07-20T10:44:46;10.25;9.00;5.00
68198;PMS7003;55021;51.554;17.044;2023-07-20T10:59:49;9.50;8.75;4.75
68198;PMS7003;55021;51.554;17.044;2023-07-20T11:14:54;8.50;8.00;4.50
68198;PMS7003;55021;51.554;17.044;2023-07-20T11:29:58;9.50;9.50;5.50
68198;PMS7003;55021;51.554;17.044;2023-07-20T11:45:01;10.75;10.75;6.00
68198;PMS7003;55021;51.554;17.044;2023-07-20T12:00:04;10.25;9.75;5.75
68198;PMS7003;55021;51.554;17.044;2023-07-20T12:15:14;11.75;10.00;5.50
68198;PMS7003;55021;51.554;17.044;2023-07-20T12:30:17;9.75;9.75;5.00
68198;PMS7003;55021;51.554;17.044;2023-07-20T12:45:20;11.00;10.00;4.75
68198;PMS7003;55021;51.554;17.044;2023-07-20T13:00:23;9.25;8.75;4.00
68198;PMS7003;55021;51.554;17.044;2023-07-20T13:15:29;9.25;8.00;4.50
68198;PMS7003;55021;51.554;17.044;2023-07-20T13:30:32;7.00;7.00;2.00
68198;PMS7003;55021;51.554;17.044;2023-07-20T13:45:35;9.00;8.00;3.00
68198;PMS7003;55021;51.554;17.044;2023-07-20T16:50:28;6.50;6.50;3.00
68198;PMS7003;55021;51.554;17.044;2023-07-20T17:05:31;7.00;7.00;3.00
68198;PMS7003;55021;51.554;17.044;2023-07-20T17:20:33;6.00;6.00;2.00
68198;PMS7003;55021;51.554;17.044;2023-07-20T17:35:36;6.25;5.00;2.00
68198;PMS7003;55021;51.554;17.044;2023-07-20T17:50:38;5.00;5.00;2.00
68198;PMS7003;55021;51.554;17.044;2023-07-20T18:05:41;6.00;6.00;3.00
68198;PMS7003;55021;51.554;17.044;2023-07-20T18:20:43;7.00;6.75;2.75
68198;PMS7003;55021;51.554;17.044;2023-07-20T18:35:46;6.00;6.00;2.00
68198;PMS7003;55021;51.554;17.044;2023-07-20T18:50:49;6.00;6.00;2.00
68198;PMS7003;55021;51.554;17.044;2023-07-20T19:05:51;5.00;5.00;1.25
68198;PMS7003;55021;51.554;17.044;2023-07-20T19:20:53;5.25;5.00;1.00
68198;PMS7003;55021;51.554;17.044;2023-07-20T19:35:56;7.75;5.00;1.00
68198;PMS7003;55021;51.554;17.044;2023-07-20T19:50:59;5.00;5.00;1.00
68198;PMS7003;55021;51.554;17.044;2023-07-20T20:06:05;7.00;5.75;2.00
68198;PMS7003;55021;51.554;17.044;2023-07-20T20:21:07;6.50;5.50;1.00
68198;PMS7003;55021;51.554;17.044;2023-07-20T20:36:10;5.25;5.25;1.50
68198;PMS7003;55021;51.554;17.044;2023-07-20T20:51:12;6.25;6.25;3.00
68198;PMS7003;55021;51.554;17.044;2023-07-20T21:06:15;7.25;7.25;2.25
68198;PMS7003;55021;51.554;17.044;2023-07-20T21:21:18;8.00;8.00;4.00
68198;PMS7003;55021;51.554;17.044;2023-07-20T21:36:21;6.50;6.50;2.25
68198;PMS7003;55021;51.554;17.044;2023-07-20T21:51:23;8.50;8.50;3.50
68198;PMS7003;55021;51.554;17.044;2023-07-20T22:06:26;8.50;8.00;3.00
68198;PMS7003;55021;51.554;17.044;2023-07-20T22:21:29;8.75;8.25;4.25
68198;PMS7003;55021;51.554;17.044;2023-07-20T22:36:31;9.00;8.00;4.00
68198;PMS7003;55021;51.554;17.044;2023-07-20T22:51:33;7.75;7.50;3.00
68198;PMS7003;55021;51.554;17.044;2023-07-20T23:06:35;10.75;10.00;5.75
68198;PMS7003;55021;51.554;17.044;2023-07-20T23:21:38;9.00;9.00;4.00
68198;PMS7003;55021;51.554;17.044;2023-07-20T23:36:40;10.00;9.25;5.00
68198;PMS7003;55021;51.554;17.044;2023-07-20T23:51:43;10.00;9.25;5.25
